Time;durP1;ratioP1;P1;durP2;ratioP2;P2;SDS_P1;SDS_P2;PMS_P1;PMS_P2;Temp;Humidity;BMP_temperature;BMP_pressure;BME280_temperature;BME280_humidity;BME280_pressure;Samples;Min_cycle;Max_cycle;Signal;HPM_P1;HPM_P2
2022/02/04 00:04:29;;;;;;;52.67;19.80;;;1.00;99.90;;;;;;4460796;27;655932;-72
2022/02/04 00:07:51;;;;;;;56.57;20.53;;;0.90;99.90;;;;;;4443355;27;656373;-72
2022/02/04 00:20:25;;;;;;;55.77;22.37;;;0.80;99.90;;;;;;4445697;27;655748;-72
2022/02/04 00:23:16;;;;;;;60.97;21.33;;;0.80;99.90;;;;;;4467795;27;655415;-73
2022/02/04 00:26:13;;;;;;;62.80;23.33;;;0.80;99.90;;;;;;4463822;27;656257;-72
2022/02/04 00:29:09;;;;;;;59.10;21.83;;;0.80;99.90;;;;;;4476258;27;655773;-72
2022/02/04 00:32:03;;;;;;;57.60;22.60;;;0.70;99.90;;;;;;4457429;27;655857;-72
2022/02/04 00:34:58;;;;;;;77.47;23.83;;;0.70;99.90;;;;;;4475018;27;655738;-72
2022/02/04 00:37:57;;;;;;;58.90;21.10;;;0.80;99.90;;;;;;4469691;27;655706;-72
2022/02/04 00:40:48;;;;;;;52.40;19.83;;;0.80;99.90;;;;;;4473523;27;656362;-72
2022/02/04 00:43:38;;;;;;;52.80;20.77;;;0.80;99.90;;;;;;4472330;27;655651;-72
2022/02/04 00:46:30;;;;;;;54.77;20.43;;;0.90;99.90;;;;;;4460021;27;655869;-72
2022/02/04 00:49:24;;;;;;;55.00;20.83;;;0.80;99.90;;;;;;4446308;27;657072;-72
2022/02/04 00:52:20;;;;;;;52.73;20.73;;;0.90;99.90;;;;;;4458409;27;655957;-73
2022/02/04 00:55:21;;;;;;;58.47;21.73;;;0.90;99.90;;;;;;4443174;27;656165;-72
2022/02/04 01:26:06;;;;;;;53.40;22.23;;;1.00;99.90;;;;;;4393334;28;656431;-72
2022/02/04 01:28:53;;;;;;;55.07;22.03;;;1.00;99.90;;;;;;4419497;28;656545;-72
2022/02/04 01:31:42;;;;;;;53.17;21.67;;;1.00;99.90;;;;;;4445134;28;655233;-72
2022/02/04 01:34:31;;;;;;;59.93;23.37;;;1.10;99.90;;;;;;4441211;28;656430;-72
2022/02/04 01:37:19;;;;;;;59.35;22.40;;;1.10;99.90;;;;;;4419188;28;657188;-72
2022/02/04 01:40:08;;;;;;;51.22;20.15;;;1.10;99.90;;;;;;4419842;28;655773;-72
2022/02/04 01:42:56;;;;;;;48.60;19.97;;;1.10;99.90;;;;;;4442706;28;655163;-72
2022/02/04 01:45:43;;;;;;;54.60;21.10;;;1.10;99.90;;;;;;4415428;28;657480;-72
2022/02/04 01:48:31;;;;;;;55.00;21.33;;;1.00;99.90;;;;;;4482696;27;654817;-72
2022/02/04 01:51:21;;;;;;;52.20;20.50;;;1.00;99.90;;;;;;4462947;27;656169;-73
2022/02/04 01:54:09;;;;;;;53.73;19.93;;;1.00;99.90;;;;;;4467026;27;655445;-72
2022/02/04 01:56:57;;;;;;;51.97;20.13;;;1.10;99.90;;;;;;4491912;27;655556;-72
2022/02/04 01:59:44;;;;;;;50.17;19.70;;;1.10;99.90;;;;;;4497393;27;655481;-72
2022/02/04 02:02:32;;;;;;;44.05;18.60;;;1.10;99.90;;;;;;4479231;27;655463;-72
2022/02/04 02:05:19;;;;;;;53.97;19.77;;;1.10;99.90;;;;;;4492617;27;655235;-73
2022/02/04 02:08:09;;;;;;;50.57;19.90;;;1.20;99.90;;;;;;4458821;27;655165;-72
2022/02/04 02:10:57;;;;;;;39.58;17.02;;;1.20;99.90;;;;;;4467160;27;656114;-72
2022/02/04 02:13:49;;;;;;;45.20;17.47;;;1.20;99.90;;;;;;4488909;27;656244;-72
2022/02/04 02:17:04;;;;;;;37.70;16.20;;;1.20;99.90;;;;;;4471725;27;655558;-73
2022/02/04 02:35:50;;;;;;;37.87;15.87;;;1.40;99.90;;;;;;4391567;27;655373;-73
2022/02/04 02:42:23;;;;;;;34.07;13.03;;;1.40;99.90;;;;;;4373774;28;656778;-72
2022/02/04 02:45:25;;;;;;;45.03;17.93;;;1.40;99.90;;;;;;4395810;28;655189;-73
2022/02/04 02:48:31;;;;;;;46.43;16.27;;;1.30;99.90;;;;;;4395467;28;655689;-72
2022/02/04 02:51:41;;;;;;;41.07;15.30;;;1.30;99.90;;;;;;4367001;28;656760;-73
2022/02/04 03:00:56;;;;;;;33.73;13.47;;;1.30;99.90;;;;;;4414077;28;655515;-72
2022/02/04 03:03:48;;;;;;;30.53;11.93;;;1.40;99.90;;;;;;4417772;28;655225;-72
2022/02/04 03:06:35;;;;;;;25.17;11.23;;;1.40;99.90;;;;;;4421662;28;655960;-73
2022/02/04 03:09:23;;;;;;;26.70;10.43;;;1.40;99.90;;;;;;4414327;28;655720;-73
2022/02/04 03:12:12;;;;;;;31.13;10.77;;;1.40;99.90;;;;;;4432474;28;655852;-73
2022/02/04 03:15:00;;;;;;;27.97;11.20;;;1.40;99.90;;;;;;4429650;27;656337;-73
2022/02/04 03:17:50;;;;;;;41.50;16.77;;;1.40;99.90;;;;;;4475922;27;656670;-73
2022/02/04 03:20:46;;;;;;;36.67;14.97;;;1.40;99.90;;;;;;4473738;27;655531;-73
2022/02/04 03:23:37;;;;;;;27.30;13.02;;;1.40;99.90;;;;;;4473435;27;655674;-73
2022/02/04 03:26:30;;;;;;;36.67;14.23;;;1.40;99.90;;;;;;4458444;27;655520;-73
2022/02/04 03:29:21;;;;;;;36.67;14.83;;;1.40;99.90;;;;;;4467150;27;655627;-73
2022/02/04 03:32:11;;;;;;;41.97;15.90;;;1.40;99.90;;;;;;4470055;27;656525;-73
2022/02/04 03:34:59;;;;;;;64.97;16.67;;;1.40;99.90;;;;;;4473986;27;656999;-73
2022/02/04 03:37:47;;;;;;;30.27;13.10;;;1.40;99.90;;;;;;4494576;27;655754;-73
2022/02/04 03:40:34;;;;;;;31.33;13.67;;;1.40;99.90;;;;;;4500515;27;656801;-73
2022/02/04 03:43:22;;;;;;;33.80;13.13;;;1.30;99.90;;;;;;4465122;27;655825;-73
2022/02/04 03:46:11;;;;;;;29.70;12.73;;;1.30;99.90;;;;;;4492679;27;655678;-73
2022/02/04 03:48:59;;;;;;;29.93;12.67;;;1.30;99.90;;;;;;4475689;27;657246;-73
2022/02/04 03:51:47;;;;;;;31.17;12.57;;;1.30;99.90;;;;;;4498993;27;655707;-73
2022/02/04 03:54:35;;;;;;;26.57;11.03;;;1.30;99.90;;;;;;4477408;27;656164;-73
2022/02/04 03:57:22;;;;;;;35.10;12.87;;;1.40;99.90;;;;;;4470516;27;655802;-73
2022/02/04 04:00:12;;;;;;;35.80;14.30;;;1.40;99.90;;;;;;4475822;27;656746;-73
2022/02/04 04:03:01;;;;;;;39.10;14.60;;;1.40;99.90;;;;;;4453423;27;656254;-73
2022/02/04 04:05:50;;;;;;;38.37;14.47;;;1.40;99.90;;;;;;4452639;27;656229;-73
2022/02/04 04:08:37;;;;;;;28.73;14.07;;;1.50;99.90;;;;;;4471094;27;655748;-73
2022/02/04 04:11:25;;;;;;;24.47;11.63;;;1.40;99.90;;;;;;4484345;27;655390;-73
2022/02/04 04:14:14;;;;;;;27.07;10.53;;;1.40;99.90;;;;;;4448053;27;655645;-72
2022/02/04 04:17:02;;;;;;;29.27;10.47;;;1.30;99.90;;;;;;4463259;27;655883;-73
2022/02/04 04:19:51;;;;;;;23.77;8.43;;;1.30;99.90;;;;;;4481317;27;656258;-73
2022/02/04 04:22:38;;;;;;;27.53;11.20;;;1.30;99.90;;;;;;4452403;27;655723;-73
2022/02/04 04:25:26;;;;;;;23.30;9.53;;;1.40;99.90;;;;;;4466406;27;655220;-73
2022/02/04 04:28:13;;;;;;;28.10;10.63;;;1.40;99.90;;;;;;4448589;27;655728;-72
2022/02/04 04:31:01;;;;;;;28.77;10.53;;;1.40;99.90;;;;;;4470607;27;655203;-73
2022/02/04 04:33:48;;;;;;;30.73;11.83;;;1.40;99.90;;;;;;4451619;27;656137;-73
2022/02/04 04:36:38;;;;;;;26.53;10.33;;;1.40;99.90;;;;;;4471586;27;656075;-73
2022/02/04 04:39:31;;;;;;;24.73;11.02;;;1.40;99.90;;;;;;4467863;27;656117;-73
2022/02/04 04:42:30;;;;;;;28.03;11.37;;;1.40;99.90;;;;;;4426465;27;656726;-73
2022/02/04 05:29:04;;;;;;;71.73;19.40;;;0.60;99.90;;;;;;4369764;28;655259;-72
2022/02/04 05:31:52;;;;;;;78.17;18.30;;;0.50;99.90;;;;;;4395964;28;656329;-73
2022/02/04 05:34:39;;;;;;;78.10;18.53;;;0.50;99.90;;;;;;4456060;28;656720;-73
2022/02/04 05:37:27;;;;;;;295.33;21.63;;;0.40;99.90;;;;;;4431004;28;655358;-73
2022/02/04 05:40:18;;;;;;;206.68;19.13;;;0.30;99.90;;;;;;4453020;28;657763;-73
2022/02/04 05:43:15;;;;;;;32.47;10.37;;;0.30;99.90;;;;;;4430733;28;657384;-72
2022/02/04 05:46:04;;;;;;;40.07;10.13;;;0.20;99.90;;;;;;4442290;28;656067;-72
2022/02/04 05:48:54;;;;;;;27.55;9.05;;;0.20;99.90;;;;;;4444300;28;657009;-72
2022/02/04 05:51:53;;;;;;;30.57;10.60;;;0.10;99.90;;;;;;4438020;28;654518;-72
2022/02/04 05:54:56;;;;;;;37.77;12.20;;;0.10;99.90;;;;;;4435090;28;655546;-72
2022/02/04 05:57:56;;;;;;;29.67;12.03;;;0.10;99.90;;;;;;4434992;28;656292;-72
2022/02/04 06:00:51;;;;;;;104.43;12.80;;;0.10;99.90;;;;;;4435414;28;655293;-72
2022/02/04 06:03:49;;;;;;;239.60;13.50;;;0.00;99.90;;;;;;4463285;27;656575;-73
2022/02/04 06:07:05;;;;;;;163.97;11.10;;;0.00;99.90;;;;;;4445227;27;656545;-72
2022/02/04 06:10:18;;;;;;;33.63;9.00;;;0.00;99.90;;;;;;4441426;27;656875;-72
2022/02/04 06:13:24;;;;;;;32.03;10.87;;;-0.10;99.90;;;;;;4474766;27;655420;-72
2022/02/04 06:22:25;;;;;;;38.47;15.07;;;0.10;99.90;;;;;;4395402;27;656595;-72
2022/02/04 06:25:13;;;;;;;40.33;16.50;;;0.10;99.90;;;;;;4449352;27;655584;-72
2022/02/04 06:28:00;;;;;;;45.70;18.10;;;0.20;99.90;;;;;;4474145;27;655882;-72
2022/02/04 06:30:48;;;;;;;46.73;17.43;;;0.20;99.90;;;;;;4447234;27;655496;-72
2022/02/04 06:33:37;;;;;;;42.07;17.07;;;0.20;99.90;;;;;;4467170;27;656363;-72
2022/02/04 06:36:24;;;;;;;40.30;16.93;;;0.30;99.90;;;;;;4445333;27;656444;-72
2022/02/04 06:39:12;;;;;;;38.63;14.97;;;0.30;99.90;;;;;;4458993;27;655337;-72
2022/02/04 06:42:00;;;;;;;33.67;14.63;;;0.40;99.90;;;;;;4487364;27;657282;-72
2022/02/04 06:44:47;;;;;;;30.03;13.03;;;0.40;99.90;;;;;;4468360;27;655452;-72
2022/02/04 06:47:35;;;;;;;45.77;14.53;;;0.50;99.90;;;;;;4486395;27;656758;-73
2022/02/04 06:50:24;;;;;;;35.40;13.50;;;0.50;99.90;;;;;;4472183;27;656335;-72
2022/02/04 06:53:12;;;;;;;37.83;14.73;;;0.60;99.90;;;;;;4471788;27;655494;-73
2022/02/04 06:56:00;;;;;;;31.50;13.30;;;0.70;99.90;;;;;;4495499;27;656910;-72
2022/02/04 06:59:18;;;;;;;37.63;15.30;;;0.80;99.90;;;;;;4469946;27;655587;-71
2022/02/04 07:02:06;;;;;;;29.93;13.10;;;0.90;99.90;;;;;;4461038;27;656408;-71
2022/02/04 07:04:53;;;;;;;33.80;13.97;;;0.90;99.90;;;;;;4476271;27;656818;-71
2022/02/04 07:07:49;;;;;;;34.13;15.67;;;1.00;99.90;;;;;;4506744;27;655287;-71
2022/02/04 07:10:52;;;;;;;42.60;15.83;;;1.10;99.90;;;;;;4467742;27;655713;-71
2022/02/04 07:13:49;;;;;;;30.87;13.87;;;1.20;99.90;;;;;;4457210;28;656215;-71
2022/02/04 07:16:41;;;;;;;34.75;14.60;;;1.40;99.90;;;;;;4442825;28;655501;-72
2022/02/04 07:19:48;;;;;;;31.67;13.68;;;1.40;99.90;;;;;;4454464;27;655950;-71
2022/02/04 07:22:35;;;;;;;26.47;12.43;;;1.60;99.90;;;;;;4466924;27;656124;-71
2022/02/04 07:25:24;;;;;;;29.75;12.95;;;1.60;99.90;;;;;;4463284;27;655447;-72
2022/02/04 07:28:12;;;;;;;27.67;12.30;;;1.70;99.90;;;;;;4464668;27;655723;-72
2022/02/04 07:31:01;;;;;;;25.70;11.50;;;1.70;99.90;;;;;;4489797;27;655903;-72
2022/02/04 07:33:53;;;;;;;32.37;13.03;;;1.80;99.90;;;;;;4460195;27;656881;-71
2022/02/04 07:42:52;;;;;;;28.80;10.77;;;2.00;99.90;;;;;;4465567;27;656214;-71
2022/02/04 07:45:40;;;;;;;19.87;10.37;;;2.00;99.90;;;;;;4464628;27;656151;-71
2022/02/04 07:48:28;;;;;;;29.48;13.07;;;2.20;99.90;;;;;;4462396;27;656082;-72
2022/02/04 07:51:16;;;;;;;27.47;12.83;;;2.40;99.90;;;;;;4481263;27;655519;-72
2022/02/04 07:54:03;;;;;;;25.20;11.30;;;2.50;99.90;;;;;;4455206;28;655626;-72
2022/02/04 07:56:51;;;;;;;25.70;10.13;;;2.60;99.90;;;;;;4479344;28;655962;-72
2022/02/04 07:59:40;;;;;;;25.67;13.10;;;2.70;99.90;;;;;;4444537;28;656800;-71
2022/02/04 08:02:27;;;;;;;25.30;11.53;;;2.90;99.90;;;;;;4459939;28;655453;-72
2022/02/04 08:05:18;;;;;;;21.47;10.27;;;3.00;99.90;;;;;;4472358;28;655794;-71
2022/02/04 08:08:17;;;;;;;22.40;8.73;;;3.00;99.90;;;;;;4453073;28;655460;-71
2022/02/04 08:11:24;;;;;;;18.83;9.17;;;3.10;99.90;;;;;;4430170;27;655851;-71
2022/02/04 08:14:19;;;;;;;24.57;9.13;;;3.20;99.90;;;;;;4436704;28;654581;-72
2022/02/04 08:20:28;;;;;;;22.70;9.33;;;3.50;99.90;;;;;;4434129;27;654753;-71
2022/02/04 08:26:44;;;;;;;22.83;11.93;;;3.70;99.90;;;;;;4448947;27;655949;-72
2022/02/04 08:29:50;;;;;;;28.27;12.50;;;3.70;99.90;;;;;;4458893;27;655747;-72
2022/02/04 08:32:51;;;;;;;25.60;11.77;;;3.90;99.90;;;;;;4438013;27;656558;-72
2022/02/04 08:36:09;;;;;;;27.10;11.20;;;4.00;99.90;;;;;;4440771;27;656892;-72
2022/02/04 08:39:12;;;;;;;25.83;11.70;;;4.20;99.90;;;;;;4444256;27;655283;-72
2022/02/04 08:48:48;;;;;;;37.93;13.67;;;4.20;99.90;;;;;;4463654;27;655930;-71
2022/02/04 08:51:45;;;;;;;34.10;13.13;;;4.10;99.90;;;;;;4447945;27;655502;-72
2022/02/04 08:54:36;;;;;;;30.37;14.43;;;4.00;99.90;;;;;;4438335;27;656835;-71
2022/02/04 08:57:36;;;;;;;39.77;15.10;;;3.90;99.90;;;;;;4462720;27;656808;-71
2022/02/04 09:00:29;;;;;;;28.40;13.37;;;3.90;99.90;;;;;;4422365;27;656437;-71
2022/02/04 09:03:28;;;;;;;22.98;12.55;;;3.80;99.90;;;;;;4436369;27;655647;-71
2022/02/04 09:06:19;;;;;;;32.70;13.90;;;3.70;99.90;;;;;;4450966;27;655752;-72
2022/02/04 09:09:13;;;;;;;35.00;15.03;;;3.70;99.90;;;;;;4459739;27;655542;-72
2022/02/04 09:12:20;;;;;;;35.40;15.63;;;3.70;99.90;;;;;;4454558;27;656217;-72
2022/02/04 09:18:36;;;;;;;30.60;14.70;;;4.20;99.90;;;;;;4431856;27;656162;-72
2022/02/04 09:24:30;;;;;;;29.17;12.50;;;5.10;99.90;;;;;;4454863;27;655743;-72
2022/02/04 09:27:17;;;;;;;27.03;11.30;;;5.50;98.80;;;;;;4462764;27;655337;-73
2022/02/04 09:30:06;;;;;;;25.93;11.60;;;6.10;92.40;;;;;;4474874;27;657107;-74
2022/02/04 09:32:54;;;;;;;31.83;11.83;;;6.60;90.40;;;;;;4455183;27;656041;-73
2022/02/04 09:35:44;;;;;;;32.20;11.57;;;6.50;85.80;;;;;;4472869;27;656354;-73
2022/02/04 09:38:35;;;;;;;26.33;11.93;;;6.10;86.10;;;;;;4459267;27;655672;-73
2022/02/04 09:41:25;;;;;;;27.67;12.23;;;5.80;88.40;;;;;;4455079;27;657426;-73
2022/02/04 09:44:12;;;;;;;26.53;11.87;;;5.60;90.20;;;;;;4458602;27;656013;-73
2022/02/04 09:47:02;;;;;;;24.60;11.27;;;5.50;90.80;;;;;;4476219;27;655780;-73
2022/02/04 09:49:55;;;;;;;29.20;11.80;;;5.40;91.90;;;;;;4455996;27;655885;-73
2022/02/04 10:09:09;;;;;;;33.30;15.00;;;5.10;96.00;;;;;;4454823;27;655632;-73
2022/02/04 10:12:26;;;;;;;32.03;14.97;;;5.10;95.10;;;;;;4436519;27;655778;-74
2022/02/04 10:15:23;;;;;;;36.03;15.43;;;5.10;95.60;;;;;;4449248;27;656272;-73
2022/02/04 10:18:14;;;;;;;34.20;13.53;;;5.10;96.70;;;;;;4450561;27;655499;-73
2022/02/04 10:21:03;;;;;;;32.93;14.23;;;5.00;94.30;;;;;;4441766;27;656485;-73
2022/02/04 10:23:52;;;;;;;32.63;13.60;;;4.90;95.40;;;;;;4470325;27;656326;-73
2022/02/04 10:26:40;;;;;;;30.97;13.97;;;4.90;96.60;;;;;;4455563;27;656148;-73
2022/02/04 10:29:29;;;;;;;30.63;14.27;;;4.90;96.40;;;;;;4455845;27;655478;-73
2022/02/04 10:32:17;;;;;;;33.73;15.17;;;4.80;96.50;;;;;;4468495;27;655877;-73
2022/02/04 10:35:06;;;;;;;38.37;15.93;;;4.70;96.50;;;;;;4475649;27;655675;-73
2022/02/04 10:38:00;;;;;;;35.80;15.23;;;4.70;97.00;;;;;;4454542;27;656685;-73
2022/02/04 10:40:55;;;;;;;41.37;16.17;;;4.80;98.20;;;;;;4452651;27;655953;-73
2022/02/04 10:43:57;;;;;;;32.93;14.10;;;4.90;98.60;;;;;;4430326;27;656668;-74
2022/02/04 10:46:57;;;;;;;31.20;14.50;;;5.20;96.80;;;;;;4449299;27;655894;-74
2022/02/04 10:49:57;;;;;;;33.50;13.60;;;5.30;95.60;;;;;;4459873;27;655478;-73
2022/02/04 10:53:07;;;;;;;34.97;13.93;;;5.60;94.00;;;;;;4450718;27;656041;-74
2022/02/04 11:05:20;;;;;;;31.77;12.83;;;6.10;90.90;;;;;;4439394;27;655861;-73
2022/02/04 11:08:26;;;;;;;32.40;13.40;;;6.10;90.50;;;;;;4456483;27;656978;-74
2022/02/04 11:34:06;;;;;;;33.87;13.50;;;5.20;96.70;;;;;;4435486;27;656014;-74
2022/02/04 11:52:49;;;;;;;31.07;12.30;;;4.90;99.90;;;;;;4387510;28;655825;-73
2022/02/04 11:55:37;;;;;;;31.00;12.47;;;4.80;99.90;;;;;;4363259;28;656421;-74
2022/02/04 11:58:25;;;;;;;28.40;11.37;;;4.70;99.90;;;;;;4408708;28;655720;-73
2022/02/04 12:01:13;;;;;;;28.55;10.95;;;4.80;99.90;;;;;;4394992;28;655367;-74
2022/02/04 12:04:00;;;;;;;25.38;11.05;;;4.80;99.90;;;;;;4405760;28;656275;-74
2022/02/04 12:06:50;;;;;;;23.30;9.73;;;4.70;99.90;;;;;;4395738;28;655715;-74
2022/02/04 12:09:37;;;;;;;24.70;9.70;;;4.70;99.90;;;;;;4393150;28;654735;-73
2022/02/04 12:13:10;;;;;;;21.50;9.27;;;4.70;99.90;;;;;;4407829;28;655275;-73
2022/02/04 12:16:02;;;;;;;21.43;9.17;;;4.60;99.90;;;;;;4341571;28;655460;-74
2022/02/04 12:19:06;;;;;;;19.07;7.37;;;4.50;99.90;;;;;;4384872;28;654723;-73
2022/02/04 12:21:55;;;;;;;18.37;6.53;;;4.50;99.90;;;;;;4433747;28;655236;-73
2022/02/04 12:24:45;;;;;;;22.63;8.37;;;4.30;99.90;;;;;;4442575;28;654448;-73
2022/02/04 12:27:37;;;;;;;14.70;6.37;;;4.20;99.90;;;;;;4440598;28;656409;-73
2022/02/04 12:30:45;;;;;;;18.63;6.97;;;4.20;99.90;;;;;;4435245;28;654643;-73
2022/02/04 12:33:38;;;;;;;19.03;7.40;;;4.20;99.90;;;;;;4437207;28;655140;-73
2022/02/04 12:36:27;;;;;;;20.43;7.97;;;4.20;99.90;;;;;;4434078;28;654351;-74
2022/02/04 12:39:17;;;;;;;23.47;8.03;;;4.20;99.90;;;;;;4437944;28;656646;-74
2022/02/04 12:42:06;;;;;;;21.43;8.07;;;4.20;99.90;;;;;;4443764;28;654949;-73
2022/02/04 12:44:56;;;;;;;18.87;7.17;;;4.20;99.90;;;;;;4432480;28;655830;-73
2022/02/04 12:47:44;;;;;;;20.40;7.10;;;4.30;99.90;;;;;;4443239;27;655101;-73
2022/02/04 12:50:32;;;;;;;20.17;7.80;;;4.40;99.90;;;;;;4451380;28;654429;-73
2022/02/04 12:53:26;;;;;;;20.70;8.17;;;4.40;99.90;;;;;;4457516;28;655992;-73
2022/02/04 12:56:22;;;;;;;19.53;8.87;;;4.40;99.90;;;;;;4434747;28;655281;-73
2022/02/04 13:02:37;;;;;;;23.27;8.00;;;4.60;99.90;;;;;;4444575;28;654394;-73
2022/02/04 13:08:44;;;;;;;18.17;8.43;;;4.70;99.90;;;;;;4444534;27;655822;-74
2022/02/04 13:11:34;;;;;;;20.73;9.20;;;4.70;99.90;;;;;;4421670;28;654558;-73
2022/02/04 13:14:28;;;;;;;21.10;8.37;;;4.60;99.70;;;;;;4456965;27;654950;-74
2022/02/04 13:17:32;;;;;;;18.50;8.50;;;4.60;99.90;;;;;;4447304;27;654701;-74
2022/02/04 13:20:24;;;;;;;24.43;8.87;;;4.50;99.90;;;;;;4450633;27;656448;-74
2022/02/04 13:23:14;;;;;;;26.50;9.50;;;4.50;99.90;;;;;;4435767;27;654932;-73
2022/02/04 13:26:04;;;;;;;21.93;9.30;;;4.50;99.90;;;;;;4453826;27;654345;-74
2022/02/04 13:28:56;;;;;;;23.83;9.37;;;4.50;99.90;;;;;;4456458;27;654339;-73
2022/02/04 13:31:44;;;;;;;20.33;9.73;;;4.40;99.90;;;;;;4456943;27;655323;-74
2022/02/04 13:34:32;;;;;;;22.83;9.75;;;4.40;99.90;;;;;;4453315;27;655311;-74
2022/02/04 13:37:27;;;;;;;26.43;10.20;;;4.40;99.90;;;;;;4478760;27;655677;-74
2022/02/04 13:40:21;;;;;;;25.80;10.53;;;4.40;99.90;;;;;;4456688;27;656231;-74
2022/02/04 13:43:24;;;;;;;30.67;12.23;;;4.40;99.90;;;;;;4452400;27;655779;-74
2022/02/04 13:46:22;;;;;;;28.80;12.37;;;4.40;99.90;;;;;;4481425;27;655801;-74
2022/02/04 13:49:24;;;;;;;25.10;10.03;;;4.40;99.90;;;;;;4455157;27;656169;-74
2022/02/04 13:52:17;;;;;;;29.10;11.90;;;4.40;99.90;;;;;;4428955;27;656055;-73
2022/02/04 13:55:21;;;;;;;28.40;11.73;;;4.30;99.90;;;;;;4455110;27;656280;-74
2022/02/04 13:58:18;;;;;;;29.67;12.73;;;4.30;99.90;;;;;;4450486;27;656074;-73
2022/02/04 14:01:11;;;;;;;29.03;12.43;;;4.30;99.90;;;;;;4450775;27;655113;-73
2022/02/04 14:04:01;;;;;;;27.83;11.37;;;4.30;99.90;;;;;;4427230;27;655441;-73
2022/02/04 14:06:49;;;;;;;27.33;11.67;;;4.30;99.90;;;;;;4453264;27;656620;-73
2022/02/04 14:09:43;;;;;;;26.65;11.30;;;4.30;99.90;;;;;;4461533;27;655765;-73
2022/02/04 14:12:30;;;;;;;27.43;11.77;;;4.30;99.90;;;;;;4455073;27;655363;-73
2022/02/04 14:15:27;;;;;;;30.33;11.40;;;4.20;99.90;;;;;;4455700;27;655691;-73
2022/02/04 14:18:15;;;;;;;29.17;10.77;;;4.20;99.90;;;;;;4449278;27;656077;-74
2022/02/04 14:21:04;;;;;;;40.33;13.83;;;4.20;99.90;;;;;;4460172;27;655613;-73
2022/02/04 14:23:55;;;;;;;40.78;13.38;;;4.30;99.90;;;;;;4450234;27;655621;-74
2022/02/04 14:26:46;;;;;;;36.43;13.13;;;4.20;99.90;;;;;;4458176;27;655488;-74
2022/02/04 14:29:42;;;;;;;44.83;15.90;;;4.20;99.90;;;;;;4459081;27;656971;-73
2022/02/04 14:32:38;;;;;;;49.63;16.53;;;4.10;99.90;;;;;;4448356;27;656634;-73
2022/02/04 14:35:36;;;;;;;48.40;15.57;;;4.10;99.90;;;;;;4451312;27;655944;-73
2022/02/04 14:51:23;;;;;;;40.07;14.17;;;4.00;99.90;;;;;;4445618;27;656594;-74
2022/02/04 14:54:26;;;;;;;37.83;14.47;;;4.00;99.90;;;;;;4452057;27;655745;-74
2022/02/04 15:00:37;;;;;;;37.63;14.30;;;3.90;99.90;;;;;;4453354;27;655607;-74
2022/02/04 15:03:31;;;;;;;33.53;12.83;;;3.90;99.90;;;;;;4463734;27;655576;-74
2022/02/04 15:06:26;;;;;;;43.83;16.57;;;3.90;99.90;;;;;;4459043;27;655655;-74
2022/02/04 15:09:15;;;;;;;39.40;16.10;;;3.90;99.90;;;;;;4441364;27;655694;-74
2022/02/04 15:12:03;;;;;;;37.73;15.90;;;3.80;99.90;;;;;;4468156;27;655665;-74
2022/02/04 15:14:51;;;;;;;41.03;16.97;;;3.90;99.90;;;;;;4485279;27;655904;-74
2022/02/04 15:17:40;;;;;;;31.73;13.10;;;3.90;99.90;;;;;;4444931;27;657189;-74
2022/02/04 15:20:27;;;;;;;37.03;15.57;;;3.90;99.90;;;;;;4452505;28;656256;-74
2022/02/04 15:23:16;;;;;;;37.17;15.90;;;3.90;99.90;;;;;;4473169;28;655730;-74
2022/02/04 15:26:07;;;;;;;33.93;13.53;;;3.90;99.90;;;;;;4448438;27;657438;-75
2022/02/04 15:28:58;;;;;;;34.03;15.60;;;3.80;99.90;;;;;;4452751;27;657155;-74
2022/02/04 15:31:50;;;;;;;38.73;15.87;;;3.90;99.90;;;;;;4450788;27;655987;-73
2022/02/04 15:34:37;;;;;;;37.67;17.00;;;3.80;99.90;;;;;;4456340;27;655693;-75
2022/02/04 15:37:25;;;;;;;38.50;16.60;;;3.80;99.90;;;;;;4474093;27;655639;-74
2022/02/04 15:40:13;;;;;;;38.33;15.07;;;3.70;99.90;;;;;;4454428;27;655302;-75
2022/02/04 15:43:04;;;;;;;37.60;16.43;;;3.70;99.90;;;;;;4473045;28;655371;-75
2022/02/04 15:46:33;;;;;;;33.70;14.27;;;3.70;99.90;;;;;;4466648;27;655273;-74
2022/02/04 15:49:43;;;;;;;39.83;14.60;;;3.70;99.90;;;;;;4447649;27;656015;-75
2022/02/04 15:59:05;;;;;;;29.83;12.43;;;3.70;99.90;;;;;;4445994;28;655928;-74
2022/02/04 16:02:04;;;;;;;38.30;15.27;;;3.70;99.90;;;;;;4423267;28;656295;-73
2022/02/04 16:04:53;;;;;;;33.93;14.77;;;3.70;99.90;;;;;;4441430;27;655410;-73
2022/02/04 16:07:41;;;;;;;32.90;15.07;;;3.70;99.90;;;;;;4475925;27;655678;-73
2022/02/04 16:10:37;;;;;;;41.03;16.03;;;3.70;99.90;;;;;;4462905;27;656003;-73
2022/02/04 16:13:35;;;;;;;37.17;15.83;;;3.70;99.90;;;;;;4449604;28;655682;-73
2022/02/04 16:16:28;;;;;;;40.77;15.33;;;3.70;99.90;;;;;;4422396;28;655760;-73
2022/02/04 16:19:27;;;;;;;43.17;17.77;;;3.70;99.90;;;;;;4445035;28;655338;-73
2022/02/04 16:25:32;;;;;;;44.10;17.23;;;3.70;99.90;;;;;;4449138;27;655602;-74
2022/02/04 16:28:39;;;;;;;43.67;17.30;;;3.70;99.90;;;;;;4445577;27;656848;-74
2022/02/04 16:31:28;;;;;;;44.03;17.13;;;3.70;99.90;;;;;;4450587;27;655485;-76
2022/02/04 16:34:16;;;;;;;51.60;19.23;;;3.70;99.90;;;;;;4482379;27;655064;-74
2022/02/04 16:37:15;;;;;;;48.47;20.50;;;3.70;99.90;;;;;;4456561;27;656515;-76
2022/02/04 16:40:09;;;;;;;52.60;19.93;;;3.60;99.90;;;;;;4421972;28;656967;-74
2022/02/04 16:42:57;;;;;;;49.83;20.73;;;3.60;99.90;;;;;;4435042;27;655566;-75
2022/02/04 16:45:45;;;;;;;50.30;20.63;;;3.60;99.90;;;;;;4480103;27;656053;-75
2022/02/04 16:48:34;;;;;;;47.77;20.57;;;3.60;99.90;;;;;;4460029;27;655684;-74
2022/02/04 16:51:22;;;;;;;46.23;18.33;;;3.60;99.90;;;;;;4467792;27;655976;-74
2022/02/04 16:54:09;;;;;;;44.00;18.03;;;3.60;99.90;;;;;;4480670;27;656791;-74
2022/02/04 16:57:00;;;;;;;43.67;18.47;;;3.60;99.90;;;;;;4459487;27;655678;-74
2022/02/04 16:59:48;;;;;;;48.33;19.07;;;3.60;99.90;;;;;;4458161;27;656993;-74
2022/02/04 17:02:36;;;;;;;51.60;20.30;;;3.60;99.90;;;;;;4475002;27;655978;-73
2022/02/04 17:05:34;;;;;;;45.97;19.63;;;3.60;99.90;;;;;;4454541;27;655601;-75
2022/02/04 17:08:32;;;;;;;47.25;17.23;;;3.60;99.90;;;;;;4425288;28;656344;-74
2022/02/04 17:11:22;;;;;;;44.60;19.03;;;3.60;99.90;;;;;;4444978;28;656264;-74
2022/02/04 17:14:10;;;;;;;44.83;19.37;;;3.50;99.90;;;;;;4446828;27;656816;-74
2022/02/04 17:16:58;;;;;;;45.20;17.63;;;3.60;99.90;;;;;;4456812;27;656292;-74
2022/02/04 17:19:52;;;;;;;45.17;19.33;;;3.60;99.90;;;;;;4479902;27;655362;-74
2022/02/04 17:22:42;;;;;;;42.77;18.77;;;3.60;99.90;;;;;;4450442;27;656219;-75
2022/02/04 17:25:29;;;;;;;46.10;19.00;;;3.60;99.90;;;;;;4450289;27;656421;-75
2022/02/04 17:28:17;;;;;;;46.60;19.50;;;3.60;99.90;;;;;;4455954;27;656710;-75
2022/02/04 17:31:05;;;;;;;51.97;20.40;;;3.60;99.90;;;;;;4475258;27;656558;-75
2022/02/04 17:33:52;;;;;;;53.77;20.00;;;3.60;99.90;;;;;;4458746;27;657253;-75
2022/02/04 17:36:40;;;;;;;48.13;19.73;;;3.60;99.90;;;;;;4475182;27;656225;-75
2022/02/04 17:39:29;;;;;;;39.20;15.95;;;3.60;99.90;;;;;;4457517;27;655906;-75
2022/02/04 17:42:22;;;;;;;45.90;18.58;;;3.60;99.90;;;;;;4461831;27;655493;-75
2022/02/04 17:45:11;;;;;;;49.75;19.15;;;3.60;99.90;;;;;;4452341;27;656831;-74
2022/02/04 17:48:05;;;;;;;43.23;18.93;;;3.60;99.90;;;;;;4462631;27;656105;-75
2022/02/04 17:50:59;;;;;;;48.13;19.80;;;3.60;99.90;;;;;;4431037;27;656027;-75
2022/02/04 17:53:53;;;;;;;54.03;21.27;;;3.60;99.90;;;;;;4474783;27;656248;-73
2022/02/04 17:56:58;;;;;;;51.43;21.53;;;3.50;99.90;;;;;;4454122;27;655024;-75
2022/02/04 18:00:05;;;;;;;46.20;20.45;;;3.50;99.90;;;;;;4445551;27;655971;-75
2022/02/04 18:03:05;;;;;;;43.97;18.87;;;3.60;99.90;;;;;;4447977;27;655812;-73
2022/02/04 18:06:02;;;;;;;42.73;16.87;;;3.50;99.90;;;;;;4431791;27;655940;-72
2022/02/04 18:08:50;;;;;;;53.03;20.53;;;3.50;99.90;;;;;;4454126;27;655936;-73
2022/02/04 18:11:38;;;;;;;54.07;21.33;;;3.50;99.90;;;;;;4458049;27;656265;-73
2022/02/04 18:14:27;;;;;;;82.17;30.40;;;3.40;99.90;;;;;;4478121;27;656082;-73
2022/02/04 18:17:15;;;;;;;61.77;23.17;;;3.40;99.90;;;;;;4430785;27;657189;-73
2022/02/04 18:20:02;;;;;;;48.00;21.00;;;3.40;99.90;;;;;;4461702;27;655295;-73
2022/02/04 18:22:50;;;;;;;49.27;19.33;;;3.40;99.90;;;;;;4477994;27;656380;-73
2022/02/04 18:25:38;;;;;;;38.70;16.73;;;3.40;99.90;;;;;;4455079;27;655542;-73
2022/02/04 18:28:27;;;;;;;43.67;17.97;;;3.40;99.90;;;;;;4478153;27;656048;-73
2022/02/04 18:31:16;;;;;;;37.73;17.40;;;3.30;99.90;;;;;;4456196;27;657413;-73
2022/02/04 18:34:04;;;;;;;42.90;17.43;;;3.30;99.90;;;;;;4455851;27;657440;-74
2022/02/04 18:36:55;;;;;;;34.33;16.10;;;3.30;99.90;;;;;;4458471;27;656111;-74